Norfolk Ns (Chambers Fld) Airport
KNGU : now visible

Airfield :











YOU CAN JOIN US ON...

 
LOGIN :

Register | Disclaimer

   EN    FR    IT 

 









Legend :    VFR   Marginal VFR   IFR   Intensive IFR   Very Intensive IFR
Visi :
Ceiling :
>= 8 km
>= 3000ft
5 to 8 km
1000 to 3000 ft
1500m to 5 km
500 to 1000 ft
800 to 1500m
200 to 500 ft
< 800m
< 200 ft
Symbols :   Thunderstorms  Fog  Heavy snow  Heavy precipitations  Wind > 20 kt






- Airport Elevation : 17 ft


KNGU - Norfolk Ns (Chambers Fld)

CURRENT METAR :
  • 121859Z 02008KT 10SM OVC034 06/M01 A3067 RMK AO2 SLP387 T00561011 $

EXPIRED METARs :
  • 121759Z 04008KT 10SM BKN034 05/M01 A3069 RMK AO2 SLP391 T00501011 10056 20028 58020 $
  • 121659Z 04006KT 10SM BKN032 04/M02 A3072 RMK AO2 SLP402 T00441022 $

TAF TAF KNGU
Valid from the 12 at 15:00 until the 13 at 15:00 UTC


1215/1315 05013KT 9999 FEW035 SCT260 QNH3056INS
BECMG 1222/1300 06007KT 9999 SCT050 BKN260 QNH3047INS
FM130400 03006KT 9999 BKN050 OVC100 QNH3024INS T04/1215Z T10/1314Z FN20002



MET'MAP, your aeronautical weather chart ! - Copyright ORBIFLY December 2007 - Disclaimer

ORBIFLY MET'MAP TEAM :

Programming & Development : Alexandra Zaïnal
Concept & original design : Baudouin d'Aumeries
Assistance for programming : Marc-Olivier Méhu
Technical & hardware support : Manuel Goepfert

Contact : metmap@orbifly.com




SOURCES & CREDITS :

   NOAA       Earth
Advisory